Forester — DIUT — position and weather

sailwx.info

Track history (hours):
 
Tides and Currents Weather Stations Pressure Air Temp Water Temp Dewpoint Dewpoint Depression Visibility Wind Speed Wind Dir Waves Ship Positions

Forester

Last reported at 2016-Dec-03 23:33 UTC. Time now 2016-Dec-03 23:54 UTC.
Position N 53°54' E 011°28'.

Length 100 m; draft 4.9 m.

Type: Ship. MMSI: 211233870.

Date/timePositionNaut miles runAvg speedWind from/ knotsBaromVisibWave heightAir tempDewpointWater temp
2016-Dec-03 23:33N 53°54' E 011°28'0 0.0
2016-Dec-03 22:33N 53°54' E 011°28'0 0.0
2016-Dec-03 21:33N 53°54' E 011°28'0 0.0
2016-Dec-03 20:33N 53°54' E 011°28'0 0.0
2016-Dec-03 19:33N 53°54' E 011°28'0 0.0
2016-Dec-03 18:32N 53°54' E 011°28'0 0.0
2016-Dec-03 17:32N 53°54' E 011°28'0 0.0
2016-Dec-03 16:29N 53°54' E 011°28'0 0.0
2016-Dec-03 15:32N 53°54' E 011°28'0 0.0
2016-Dec-03 14:32N 53°54' E 011°28'0 0.0
2016-Dec-03 13:32N 53°54' E 011°28'0 0.0
2016-Dec-03 12:32N 53°54' E 011°28'0 0.0
2016-Dec-03 11:29N 53°54' E 011°28'0 0.0
2016-Dec-03 10:32N 53°54' E 011°28'0 0.0
2016-Dec-03 09:32N 53°54' E 011°28'0 0.0
2016-Dec-03 08:32N 53°54' E 011°28'0 0.0
2016-Dec-03 07:32N 53°54' E 011°28'0 0.0
2016-Dec-03 06:32N 53°54' E 011°28'0 0.0
2016-Dec-03 05:32N 53°54' E 011°28'0 0.0
2016-Dec-03 04:32N 53°54' E 011°28'0 0.0
2016-Dec-03 03:32N 53°54' E 011°28'0 0.0
2016-Dec-03 02:32N 53°54' E 011°28'0 0.0
2016-Dec-03 01:32N 53°54' E 011°28'0 0.0
2016-Dec-03 00:32N 53°54' E 011°28'0 0.0
2016-Dec-02 23:32N 53°54' E 011°28'0 0.0
2016-Dec-02 22:32N 53°54' E 011°28'0 0.0
2016-Dec-02 21:32N 53°54' E 011°28'0 0.0
2016-Dec-02 20:32N 53°54' E 011°28'0 0.0
2016-Dec-02 19:32N 53°54' E 011°28'0 0.0
2016-Dec-02 18:32N 53°54' E 011°28'0 0.0
2016-Dec-02 17:32N 53°54' E 011°28'0 0.0
2016-Dec-02 16:32N 53°54' E 011°28'0 0.0
2016-Dec-02 15:32N 53°54' E 011°28'0 0.0
2016-Dec-02 14:32N 53°54' E 011°28'0 0.0
2016-Dec-02 13:32N 53°54' E 011°28'0 0.0
2016-Dec-02 12:32N 53°54' E 011°28'315317.5
2016-Dec-02 11:32N 59°04' E 009°42'2 1.9
2016-Dec-02 10:33N 59°02' E 009°44'7 6.7
2016-Dec-02 09:32N 58°56' E 009°47'307314.1
2016-Dec-02 08:34N 53°54' E 011°28'5 4.8
2016-Dec-02 07:34N 53°58' E 011°22'7 7.3
2016-Dec-02 06:33N 54°05' E 011°26'1211.5
2016-Dec-02 05:33N 54°16' E 011°24'1110.9
2016-Dec-02 04:34N 54°27' E 011°21'1111.1
2016-Dec-02 03:34N 54°36' E 011°09'1111.3
2016-Dec-02 02:33N 54°42' E 010°52'1211.6
2016-Dec-02 01:33N 54°53' E 010°53'1111.5
2016-Dec-02 00:33N 55°04' E 011°01'1211.4
2016-Dec-01 23:32N 55°15' E 011°05'4711.5
2016-Dec-01 19:29N 56°02' E 011°04'1213.0
2016-Dec-01 18:33N 56°14' E 011°05'6612.3
2016-Dec-01 13:12N 57°18' E 010°41'812.7
2016-Dec-01 12:33N 57°27' E 010°43'1212.3
2016-Dec-01 11:33N 57°39' E 010°44'1212.3
2016-Dec-01 10:32N 57°51' E 010°40'6211.9
2016-Dec-01 05:18N 58°49' E 009°54'811.2
2016-Dec-01 04:33N 58°56' E 009°47'8 1.4
2016-Nov-30 22:30N 59°04' E 009°42'0 0.0
2016-Nov-30 21:09N 59°04' E 009°42'0 0.0
2016-Nov-30 18:27N 59°04' E 009°42'0 0.0
2016-Nov-30 14:33N 59°04' E 009°42'0 0.0
2016-Nov-30 09:33N 59°04' E 009°42'0 0.0
2016-Nov-30 08:30N 59°04' E 009°42'0 0.0
2016-Nov-30 03:27N 59°04' E 009°42'0 0.0
2016-Nov-30 01:12N 59°04' E 009°42'0 0.0
2016-Nov-30 00:09N 59°04' E 009°42'0 0.0
2016-Nov-29 23:33N 59°04' E 009°42'0 0.0
2016-Nov-29 22:33N 59°04' E 009°42'0 0.0
2016-Nov-29 21:33N 59°04' E 009°42'0 0.0
2016-Nov-29 20:27N 59°04' E 009°42'0 0.0
2016-Nov-29 14:19N 59°04' E 009°42'4 5.6
2016-Nov-29 13:33N 59°00' E 009°47'9 9.2
2016-Nov-29 12:33N 58°51' E 009°43'8 8.4
2016-Nov-29 11:33N 58°44' E 009°36'10 9.8
2016-Nov-29 10:33N 58°35' E 009°29'23 9.4
2016-Nov-29 08:07N 58°14' E 009°12'15810.1
2016-Nov-28 16:28N 55°49' E 007°15'1010.7
2016-Nov-28 15:31N 55°41' E 007°05'1010.5
2016-Nov-28 14:33N 55°33' E 006°54'1010.5
2016-Nov-28 13:33N 55°24' E 006°44'1010.3
2016-Nov-28 12:33N 55°16' E 006°33'7110.2
2016-Nov-28 05:33N 54°17' E 005°23'1010.2
2016-Nov-28 04:32N 54°09' E 005°12'1010.0
2016-Nov-28 03:33N 53°60' E 005°05'10 9.7
2016-Nov-28 02:33N 53°51' E 004°60'9 9.4
2016-Nov-28 01:33N 53°42' E 004°54'11 9.2
2016-Nov-28 00:25N 53°32' E 004°48'8 9.3
2016-Nov-27 23:33N 53°25' E 004°43'9 9.0
2016-Nov-27 22:33N 53°16' E 004°37'9 8.7
2016-Nov-27 21:33N 53°08' E 004°32'9 8.5
2016-Nov-27 20:33N 53°01' E 004°24'8 8.4
2016-Nov-27 19:33N 52°54' E 004°18'9 8.5
2016-Nov-27 18:31N 52°46' E 004°10'9 8.7
2016-Nov-27 17:32N 52°40' E 003°60'6510.6
2016-Nov-27 11:22N 51°52' E 002°47'810.4
2016-Nov-27 10:33N 51°45' E 002°39'1110.7
2016-Nov-27 09:33N 51°37' E 002°28'1010.0
2016-Nov-27 08:33N 51°29' E 002°19'9 9.0
2016-Nov-27 07:33N 51°22' E 002°10'9 8.7
2016-Nov-27 06:33N 51°14' E 002°04'9 8.6
2016-Nov-27 05:33N 51°09' E 001°52'9 8.7
2016-Nov-27 04:33N 51°03' E 001°42'9 9.2
2016-Nov-27 03:33N 50°56' E 001°32'12 9.9
2016-Nov-27 02:20N 50°45' E 001°26'5310.2
2016-Nov-26 21:09N 50°19' E 000°14'711.3
2016-Nov-26 20:33N 50°17' E 000°04'1211.9
2016-Nov-26 19:33N 50°13' W 000°14'1212.4
2016-Nov-26 18:33N 50°10' W 000°33'1312.7
2016-Nov-26 17:33N 50°06' W 000°51'1212.2
2016-Nov-26 16:33N 50°02' W 001°09'1111.2
2016-Nov-26 15:33N 49°59' W 001°26'1010.0
2016-Nov-26 14:33N 49°57' W 001°41'9 8.8
2016-Nov-26 13:33N 49°55' W 001°55'8 7.6
2016-Nov-26 12:33N 49°54' W 002°07'124 9.4
2016-Nov-25 23:22N 48°59' W 004°58'6 7.0
2016-Nov-25 22:33N 48°56' W 005°06'8 7.1
2016-Nov-25 21:24N 48°52' W 005°17'5 6.5
2016-Nov-25 20:33N 48°50' W 005°24'6 6.2
2016-Nov-25 19:32N 48°46' W 005°32'  
Track history (hours):
 
Tides and Currents Weather Stations Pressure Air Temp Water Temp Dewpoint Dewpoint Depression Visibility Wind Speed Wind Dir Waves Ship Positions

Forester

Last reported at 2016-Dec-03 23:33 UTC. Time now 2016-Dec-03 23:54 UTC.
Position N 53°54' E 011°28'.

Length 100 m; draft 4.9 m.

Type: Ship. MMSI: 211233870.

Date/timePositionNaut miles runAvg speedWind from/ knotsBaromVisibWave heightAir tempDewpointWater temp
2016-Dec-03 23:33N 53°54' E 011°28'0 0.0
2016-Dec-03 22:33N 53°54' E 011°28'0 0.0
2016-Dec-03 21:33N 53°54' E 011°28'0 0.0
2016-Dec-03 20:33N 53°54' E 011°28'0 0.0
2016-Dec-03 19:33N 53°54' E 011°28'0 0.0
2016-Dec-03 18:32N 53°54' E 011°28'0 0.0
2016-Dec-03 17:32N 53°54' E 011°28'0 0.0
2016-Dec-03 16:29N 53°54' E 011°28'0 0.0
2016-Dec-03 15:32N 53°54' E 011°28'0 0.0
2016-Dec-03 14:32N 53°54' E 011°28'0 0.0
2016-Dec-03 13:32N 53°54' E 011°28'0 0.0
2016-Dec-03 12:32N 53°54' E 011°28'0 0.0
2016-Dec-03 11:29N 53°54' E 011°28'0 0.0
2016-Dec-03 10:32N 53°54' E 011°28'0 0.0
2016-Dec-03 09:32N 53°54' E 011°28'0 0.0
2016-Dec-03 08:32N 53°54' E 011°28'0 0.0
2016-Dec-03 07:32N 53°54' E 011°28'0 0.0
2016-Dec-03 06:32N 53°54' E 011°28'0 0.0
2016-Dec-03 05:32N 53°54' E 011°28'0 0.0
2016-Dec-03 04:32N 53°54' E 011°28'0 0.0
2016-Dec-03 03:32N 53°54' E 011°28'0 0.0
2016-Dec-03 02:32N 53°54' E 011°28'0 0.0
2016-Dec-03 01:32N 53°54' E 011°28'0 0.0
2016-Dec-03 00:32N 53°54' E 011°28'0 0.0
2016-Dec-02 23:32N 53°54' E 011°28'0 0.0
2016-Dec-02 22:32N 53°54' E 011°28'0 0.0
2016-Dec-02 21:32N 53°54' E 011°28'0 0.0
2016-Dec-02 20:32N 53°54' E 011°28'0 0.0
2016-Dec-02 19:32N 53°54' E 011°28'0 0.0
2016-Dec-02 18:32N 53°54' E 011°28'0 0.0
2016-Dec-02 17:32N 53°54' E 011°28'0 0.0
2016-Dec-02 16:32N 53°54' E 011°28'0 0.0
2016-Dec-02 15:32N 53°54' E 011°28'0 0.0
2016-Dec-02 14:32N 53°54' E 011°28'0 0.0
2016-Dec-02 13:32N 53°54' E 011°28'0 0.0
2016-Dec-02 12:32N 53°54' E 011°28'315317.5
2016-Dec-02 11:32N 59°04' E 009°42'2 1.9
2016-Dec-02 10:33N 59°02' E 009°44'7 6.7
2016-Dec-02 09:32N 58°56' E 009°47'307314.1
2016-Dec-02 08:34N 53°54' E 011°28'5 4.8
2016-Dec-02 07:34N 53°58' E 011°22'7 7.3
2016-Dec-02 06:33N 54°05' E 011°26'1211.5
2016-Dec-02 05:33N 54°16' E 011°24'1110.9
2016-Dec-02 04:34N 54°27' E 011°21'1111.1
2016-Dec-02 03:34N 54°36' E 011°09'1111.3
2016-Dec-02 02:33N 54°42' E 010°52'1211.6
2016-Dec-02 01:33N 54°53' E 010°53'1111.5
2016-Dec-02 00:33N 55°04' E 011°01'1211.4
2016-Dec-01 23:32N 55°15' E 011°05'4711.5
2016-Dec-01 19:29N 56°02' E 011°04'1213.0
2016-Dec-01 18:33N 56°14' E 011°05'6612.3
2016-Dec-01 13:12N 57°18' E 010°41'812.7
2016-Dec-01 12:33N 57°27' E 010°43'1212.3
2016-Dec-01 11:33N 57°39' E 010°44'1212.3
2016-Dec-01 10:32N 57°51' E 010°40'6211.9
2016-Dec-01 05:18N 58°49' E 009°54'811.2
2016-Dec-01 04:33N 58°56' E 009°47'8 1.4
2016-Nov-30 22:30N 59°04' E 009°42'0 0.0
2016-Nov-30 21:09N 59°04' E 009°42'0 0.0
2016-Nov-30 18:27N 59°04' E 009°42'0 0.0
2016-Nov-30 14:33N 59°04' E 009°42'0 0.0
2016-Nov-30 09:33N 59°04' E 009°42'0 0.0
2016-Nov-30 08:30N 59°04' E 009°42'0 0.0
2016-Nov-30 03:27N 59°04' E 009°42'0 0.0
2016-Nov-30 01:12N 59°04' E 009°42'0 0.0
2016-Nov-30 00:09N 59°04' E 009°42'0 0.0
2016-Nov-29 23:33N 59°04' E 009°42'0 0.0
2016-Nov-29 22:33N 59°04' E 009°42'0 0.0
2016-Nov-29 21:33N 59°04' E 009°42'0 0.0
2016-Nov-29 20:27N 59°04' E 009°42'0 0.0
2016-Nov-29 14:19N 59°04' E 009°42'4 5.6
2016-Nov-29 13:33N 59°00' E 009°47'9 9.2
2016-Nov-29 12:33N 58°51' E 009°43'8 8.4
2016-Nov-29 11:33N 58°44' E 009°36'10 9.8
2016-Nov-29 10:33N 58°35' E 009°29'23 9.4
2016-Nov-29 08:07N 58°14' E 009°12'15810.1
2016-Nov-28 16:28N 55°49' E 007°15'1010.7
2016-Nov-28 15:31N 55°41' E 007°05'1010.5
2016-Nov-28 14:33N 55°33' E 006°54'1010.5
2016-Nov-28 13:33N 55°24' E 006°44'1010.3
2016-Nov-28 12:33N 55°16' E 006°33'7110.2
2016-Nov-28 05:33N 54°17' E 005°23'1010.2
2016-Nov-28 04:32N 54°09' E 005°12'1010.0
2016-Nov-28 03:33N 53°60' E 005°05'10 9.7
2016-Nov-28 02:33N 53°51' E 004°60'9 9.4
2016-Nov-28 01:33N 53°42' E 004°54'11 9.2
2016-Nov-28 00:25N 53°32' E 004°48'8 9.3
2016-Nov-27 23:33N 53°25' E 004°43'9 9.0
2016-Nov-27 22:33N 53°16' E 004°37'9 8.7
2016-Nov-27 21:33N 53°08' E 004°32'9 8.5
2016-Nov-27 20:33N 53°01' E 004°24'8 8.4
2016-Nov-27 19:33N 52°54' E 004°18'9 8.5
2016-Nov-27 18:31N 52°46' E 004°10'9 8.7
2016-Nov-27 17:32N 52°40' E 003°60'6510.6
2016-Nov-27 11:22N 51°52' E 002°47'810.4
2016-Nov-27 10:33N 51°45' E 002°39'1110.7
2016-Nov-27 09:33N 51°37' E 002°28'1010.0
2016-Nov-27 08:33N 51°29' E 002°19'9 9.0
2016-Nov-27 07:33N 51°22' E 002°10'9 8.7
2016-Nov-27 06:33N 51°14' E 002°04'9 8.6
2016-Nov-27 05:33N 51°09' E 001°52'9 8.7
2016-Nov-27 04:33N 51°03' E 001°42'9 9.2
2016-Nov-27 03:33N 50°56' E 001°32'12 9.9
2016-Nov-27 02:20N 50°45' E 001°26'5310.2
2016-Nov-26 21:09N 50°19' E 000°14'711.3
2016-Nov-26 20:33N 50°17' E 000°04'1211.9
2016-Nov-26 19:33N 50°13' W 000°14'1212.4
2016-Nov-26 18:33N 50°10' W 000°33'1312.7
2016-Nov-26 17:33N 50°06' W 000°51'1212.2
2016-Nov-26 16:33N 50°02' W 001°09'1111.2
2016-Nov-26 15:33N 49°59' W 001°26'1010.0
2016-Nov-26 14:33N 49°57' W 001°41'9 8.8
2016-Nov-26 13:33N 49°55' W 001°55'8 7.6
2016-Nov-26 12:33N 49°54' W 002°07'124 9.4
2016-Nov-25 23:22N 48°59' W 004°58'6 7.0
2016-Nov-25 22:33N 48°56' W 005°06'8 7.1
2016-Nov-25 21:24N 48°52' W 005°17'5 6.5
2016-Nov-25 20:33N 48°50' W 005°24'6 6.2
2016-Nov-25 19:32N 48°46' W 005°32'  

Dump ship's entire track history